createdAt,value
2018-12-17T00:00:15.837Z,61.90
2018-12-17T00:01:15.943Z,60.70
2018-12-17T00:02:16.252Z,58.80
2018-12-17T00:03:16.222Z,60.40
2018-12-17T00:04:16.523Z,61.00
2018-12-17T00:05:16.858Z,56.80
2018-12-17T00:06:17.191Z,59.90
2018-12-17T00:07:17.421Z,61.40
2018-12-17T00:08:17.702Z,62.40
2018-12-17T00:09:18.593Z,62.50
2018-12-17T00:10:19.307Z,62.10
2018-12-17T00:11:19.416Z,59.40
2018-12-17T00:12:19.326Z,59.90
2018-12-17T00:13:20.156Z,60.30
2018-12-17T00:14:20.561Z,59.30
2018-12-17T00:15:21.080Z,58.90
2018-12-17T00:16:20.882Z,59.10
2018-12-17T00:17:21.063Z,64.50
2018-12-17T00:18:21.209Z,59.80
2018-12-17T00:19:21.415Z,56.50
2018-12-17T00:20:21.631Z,58.40
2018-12-17T00:21:21.632Z,60.40
2018-12-17T00:22:22.033Z,57.00
2018-12-17T00:23:22.461Z,54.90
2018-12-17T00:24:22.838Z,58.80
2018-12-17T00:25:22.883Z,58.50
2018-12-17T00:26:22.938Z,58.00
2018-12-17T00:27:22.985Z,53.70
2018-12-17T00:28:23.219Z,51.60
2018-12-17T00:30:23.619Z,52.30
2018-12-17T00:31:23.978Z,52.10
2018-12-17T00:32:24.002Z,51.30
2018-12-17T00:33:24.299Z,51.00
2018-12-17T00:34:24.879Z,49.50
2018-12-17T00:35:24.647Z,50.80
2018-12-17T00:36:25.005Z,53.00
2018-12-17T00:37:25.338Z,49.00
2018-12-17T00:38:25.671Z,51.00
2018-12-17T00:39:25.968Z,49.80
2018-12-17T00:40:26.276Z,50.30
2018-12-17T00:41:26.909Z,49.20
2018-12-17T00:42:26.705Z,47.90
2018-12-17T00:43:27.022Z,50.60
2018-12-17T00:44:27.331Z,49.60
2018-12-17T00:45:27.730Z,49.60
2018-12-17T00:46:28.063Z,50.60
2018-12-17T00:47:28.421Z,51.10
2018-12-17T00:48:28.769Z,50.70
2018-12-17T00:49:29.173Z,48.60
2018-12-17T00:50:29.443Z,50.10
2018-12-17T00:51:29.676Z,51.40
2018-12-17T00:52:29.948Z,49.60
2018-12-17T00:53:30.192Z,49.80
2018-12-17T00:54:30.512Z,49.90
2018-12-17T00:55:31.014Z,49.10
2018-12-17T00:56:31.251Z,49.70
2018-12-17T00:57:31.744Z,49.50
2018-12-17T00:58:32.039Z,51.70
2018-12-17T00:59:32.351Z,51.00
2018-12-17T01:00:32.948Z,47.90
2018-12-17T01:01:32.773Z,50.40
2018-12-17T01:02:33.573Z,48.70
2018-12-17T01:03:34.095Z,50.20
2018-12-17T01:04:34.200Z,50.50
2018-12-17T01:05:34.309Z,51.00
2018-12-17T01:06:34.622Z,51.40
2018-12-17T01:07:34.939Z,49.70
2018-12-17T01:08:35.256Z,50.90
2018-12-17T01:09:35.562Z,52.70
2018-12-17T01:10:35.839Z,49.40
2018-12-17T01:11:36.090Z,50.40
2018-12-17T01:12:36.196Z,52.70
2018-12-17T01:13:36.520Z,52.70
2018-12-17T01:14:36.916Z,51.40
2018-12-17T01:15:36.809Z,52.70
2018-12-17T01:16:37.307Z,51.70
2018-12-17T01:17:37.209Z,50.80
2018-12-17T01:18:37.408Z,51.20
2018-12-17T01:19:37.495Z,54.00
2018-12-17T01:20:37.616Z,51.10
2018-12-17T01:21:37.649Z,54.70
2018-12-17T01:22:37.785Z,55.60
2018-12-17T01:23:37.834Z,53.80
2018-12-17T01:24:37.986Z,56.50
2018-12-17T01:25:38.059Z,55.10
2018-12-17T01:26:38.098Z,57.70
2018-12-17T01:27:38.243Z,53.60
2018-12-17T01:28:38.355Z,53.80
2018-12-17T01:29:38.550Z,54.40
2018-12-17T01:30:38.813Z,54.50
2018-12-17T01:31:38.871Z,54.80
2018-12-17T01:32:38.993Z,53.70
2018-12-17T01:33:38.962Z,53.90
2018-12-17T01:34:39.621Z,55.90
2018-12-17T01:35:39.748Z,53.20
2018-12-17T01:36:39.509Z,54.50
2018-12-17T01:37:39.857Z,52.10
2018-12-17T01:38:40.218Z,52.60
2018-12-17T01:39:40.460Z,54.80
2018-12-17T01:40:40.706Z,54.10
2018-12-17T01:41:41.190Z,54.80
2018-12-17T01:42:41.536Z,54.70
2018-12-17T01:43:41.771Z,54.90
2018-12-17T01:44:42.079Z,55.40
2018-12-17T01:45:42.383Z,54.00
2018-12-17T01:46:42.696Z,54.10
2018-12-17T01:47:42.918Z,56.10
2018-12-17T01:48:43.391Z,53.80
2018-12-17T01:49:43.741Z,53.40
2018-12-17T01:50:44.090Z,56.40
2018-12-17T01:51:44.341Z,54.70
2018-12-17T01:52:44.589Z,55.40
2018-12-17T01:53:44.936Z,52.80
2018-12-17T01:54:45.239Z,59.60
2018-12-17T01:55:45.567Z,55.10
2018-12-17T01:56:45.928Z,53.30
2018-12-17T01:57:46.308Z,51.80
2018-12-17T01:58:46.672Z,54.20
2018-12-17T01:59:47.165Z,53.40
2018-12-17T02:00:47.511Z,52.90
2018-12-17T02:01:47.834Z,53.70
2018-12-17T02:02:49.015Z,52.50
2018-12-17T02:03:49.136Z,52.10
2018-12-17T02:04:49.021Z,53.90
2018-12-17T02:05:49.638Z,52.70
2018-12-17T02:06:49.863Z,54.40
2018-12-17T02:07:50.098Z,54.90
2018-12-17T02:08:50.396Z,52.80
2018-12-17T02:09:50.489Z,53.90
2018-12-17T02:10:50.772Z,52.50
2018-12-17T02:11:51.123Z,54.30
2018-12-17T02:12:51.438Z,52.00
2018-12-17T02:13:51.662Z,53.30
2018-12-17T02:14:51.963Z,51.70
2018-12-17T02:15:52.063Z,53.60
2018-12-17T02:16:52.067Z,52.70
2018-12-17T02:17:51.962Z,50.50
2018-12-17T02:18:52.184Z,50.90
2018-12-17T02:19:52.407Z,53.80
2018-12-17T02:20:52.538Z,51.30
2018-12-17T02:21:52.650Z,52.80
2018-12-17T02:22:52.716Z,53.50
2018-12-17T02:23:52.827Z,51.90
2018-12-17T02:24:52.923Z,52.10
2018-12-17T02:25:52.974Z,48.70
2018-12-17T02:26:53.012Z,50.60
2018-12-17T02:27:53.057Z,50.90
2018-12-17T02:28:53.116Z,49.70
2018-12-17T02:29:53.378Z,48.70
2018-12-17T02:30:53.463Z,46.10
2018-12-17T02:31:53.569Z,48.10
2018-12-17T02:32:53.681Z,49.80
2018-12-17T02:33:53.720Z,48.40
2018-12-17T02:34:53.914Z,48.90
2018-12-17T02:35:53.940Z,47.80
2018-12-17T02:36:54.154Z,46.10
2018-12-17T02:37:54.237Z,48.00
2018-12-17T02:38:54.244Z,46.80
2018-12-17T02:39:54.495Z,46.30
2018-12-17T02:40:54.787Z,45.70
2018-12-17T02:41:54.613Z,44.50
2018-12-17T02:42:55.085Z,46.40
2018-12-17T02:43:55.383Z,47.70
2018-12-17T02:44:55.662Z,45.70
2018-12-17T02:45:55.918Z,45.50
2018-12-17T02:46:56.259Z,44.20
2018-12-17T02:47:56.767Z,45.70
2018-12-17T02:48:56.616Z,41.70
2018-12-17T02:49:56.935Z,43.50
2018-12-17T02:50:57.256Z,44.20
2018-12-17T02:51:57.875Z,42.60
2018-12-17T02:52:57.672Z,43.50
2018-12-17T02:53:58.094Z,42.90
2018-12-17T02:54:58.488Z,44.70
2018-12-17T02:55:58.701Z,41.50
2018-12-17T02:56:59.230Z,41.70
2018-12-17T02:57:59.545Z,40.90
2018-12-17T02:58:59.947Z,44.20
2018-12-17T03:00:00.442Z,41.60
2018-12-17T03:01:00.661Z,41.00
2018-12-17T03:02:00.475Z,40.50
2018-12-17T03:03:01.216Z,41.30
2018-12-17T03:04:01.496Z,40.40
2018-12-17T03:05:02.028Z,40.90
2018-12-17T03:06:01.630Z,40.30
2018-12-17T03:07:01.966Z,38.90
2018-12-17T03:08:01.733Z,41.90
2018-12-17T03:09:02.378Z,41.70
2018-12-17T03:10:03.086Z,40.80
2018-12-17T03:11:02.739Z,38.70
2018-12-17T03:12:02.992Z,39.40
2018-12-17T03:13:03.505Z,38.70
2018-12-17T03:14:03.204Z,40.80
2018-12-17T03:15:03.935Z,39.60
2018-12-17T03:16:04.244Z,40.20
2018-12-17T03:17:04.557Z,40.10
2018-12-17T03:18:04.532Z,40.10
2018-12-17T03:19:05.387Z,38.50
2018-12-17T03:20:05.810Z,38.60
2018-12-17T03:21:06.323Z,40.30
2018-12-17T03:22:06.017Z,40.80
2018-12-17T03:23:06.540Z,41.50
2018-12-17T03:24:06.540Z,39.00
2018-12-17T03:25:06.248Z,40.90
2018-12-17T03:26:06.619Z,39.30
2018-12-17T03:27:06.756Z,39.10
2018-12-17T03:28:06.965Z,38.30
2018-12-17T03:29:06.969Z,37.90
2018-12-17T03:30:07.193Z,37.80
2018-12-17T03:31:07.083Z,38.00
2018-12-17T03:32:07.457Z,39.90
2018-12-17T03:33:07.548Z,39.00
2018-12-17T03:34:07.507Z,40.30
2018-12-17T03:35:08.064Z,38.40
2018-12-17T03:36:08.103Z,37.80
2018-12-17T03:37:08.268Z,39.00
2018-12-17T03:38:08.006Z,38.20
2018-12-17T03:39:08.667Z,38.30
2018-12-17T03:40:08.750Z,37.10
2018-12-17T03:41:08.485Z,38.10
2018-12-17T03:42:09.146Z,39.40
2018-12-17T03:43:09.586Z,39.60
2018-12-17T03:44:09.466Z,38.90
2018-12-17T03:45:09.872Z,38.40
2018-12-17T03:46:10.388Z,38.30
2018-12-17T03:47:10.205Z,38.90
2018-12-17T03:48:10.720Z,37.90
2018-12-17T03:49:10.521Z,38.10
2018-12-17T03:50:10.804Z,38.70
2018-12-17T03:51:11.481Z,36.40
2018-12-17T03:52:11.552Z,38.80
2018-12-17T03:53:11.366Z,39.20
2018-12-17T03:54:11.882Z,38.40
2018-12-17T03:55:11.645Z,36.30
2018-12-17T03:56:11.967Z,38.10
2018-12-17T03:57:12.319Z,38.80
2018-12-17T03:58:12.689Z,37.70
2018-12-17T04:00:12.981Z,40.00
2018-12-17T04:01:13.259Z,39.00
2018-12-17T04:02:13.736Z,39.90
2018-12-17T04:03:13.998Z,39.30
2018-12-17T04:04:14.429Z,42.20
2018-12-17T04:05:15.017Z,41.20
2018-12-17T04:06:15.041Z,42.70
2018-12-17T04:07:14.785Z,41.90
2018-12-17T04:08:15.153Z,42.50
2018-12-17T04:09:15.465Z,43.30
2018-12-17T04:10:16.273Z,44.60
2018-12-17T04:11:16.104Z,42.70
2018-12-17T04:12:16.420Z,45.10
2018-12-17T04:13:16.686Z,46.60
2018-12-17T04:14:16.952Z,44.60
2018-12-17T04:15:17.051Z,46.00
2018-12-17T04:16:17.316Z,48.00
2018-12-17T04:17:17.828Z,48.30
2018-12-17T04:18:17.677Z,48.60
2018-12-17T04:19:18.167Z,47.40
2018-12-17T04:20:19.208Z,46.90
2018-12-17T04:21:19.307Z,47.10
2018-12-17T04:22:19.319Z,50.10
2018-12-17T04:23:19.423Z,46.50
2018-12-17T04:24:19.734Z,48.00
2018-12-17T04:25:20.056Z,46.30
2018-12-17T04:26:20.373Z,46.90
2018-12-17T04:27:20.677Z,48.60
2018-12-17T04:28:20.989Z,47.50
2018-12-17T04:29:21.127Z,43.90
2018-12-17T04:30:21.220Z,45.10
2018-12-17T04:32:21.736Z,45.60
2018-12-17T04:33:21.951Z,45.90
2018-12-17T04:34:21.933Z,44.90
2018-12-17T04:35:22.057Z,44.60
2018-12-17T04:36:22.041Z,46.30
2018-12-17T04:37:22.101Z,46.70
2018-12-17T04:38:22.436Z,44.90
2018-12-17T04:39:22.521Z,47.30
2018-12-17T04:40:22.547Z,46.00
2018-12-17T04:41:22.599Z,45.00
2018-12-17T04:42:22.657Z,44.40
2018-12-17T04:43:22.798Z,45.60
2018-12-17T04:44:22.834Z,44.00
2018-12-17T04:45:22.876Z,45.60
2018-12-17T04:46:22.921Z,44.20
2018-12-17T04:47:22.882Z,44.00
2018-12-17T04:48:23.567Z,45.80
2018-12-17T04:49:23.782Z,44.70
2018-12-17T04:50:23.873Z,44.60
2018-12-17T04:51:23.884Z,44.70
2018-12-17T04:52:23.916Z,44.50
2018-12-17T04:53:23.875Z,44.70
2018-12-17T04:54:24.235Z,43.60
2018-12-17T04:55:24.868Z,45.80
2018-12-17T04:56:24.706Z,46.80
2018-12-17T04:57:24.964Z,45.10
2018-12-17T04:58:25.345Z,43.00
2018-12-17T04:59:25.624Z,44.30
2018-12-17T05:00:25.941Z,43.10
2018-12-17T05:01:26.292Z,42.80
2018-12-17T05:02:26.537Z,44.80
2018-12-17T05:03:26.798Z,43.70
2018-12-17T05:04:27.125Z,42.10
2018-12-17T05:05:27.412Z,43.50
2018-12-17T05:06:27.706Z,43.70
2018-12-17T05:07:28.029Z,42.30
2018-12-17T05:08:28.331Z,47.40
2018-12-17T05:09:28.644Z,43.60
2018-12-17T05:10:28.975Z,44.90
2018-12-17T05:11:29.274Z,45.90
2018-12-17T05:12:29.719Z,45.30
2018-12-17T05:13:30.147Z,44.70
2018-12-17T05:14:30.670Z,45.70
2018-12-17T05:15:30.500Z,46.60
2018-12-17T05:16:30.853Z,44.70
2018-12-17T05:17:31.105Z,44.10
2018-12-17T05:18:31.371Z,45.80
2018-12-17T05:19:31.688Z,44.40
2018-12-17T05:20:32.046Z,44.30
2018-12-17T05:21:32.576Z,44.40
2018-12-17T05:22:32.409Z,43.70
2018-12-17T05:23:33.020Z,46.00
2018-12-17T05:24:32.926Z,46.90
2018-12-17T05:25:33.866Z,48.70
2018-12-17T05:26:34.578Z,46.80
2018-12-17T05:27:34.795Z,45.20
2018-12-17T05:28:35.103Z,45.60
2018-12-17T05:29:35.421Z,47.30
2018-12-17T05:30:35.740Z,48.70
2018-12-17T05:31:35.994Z,46.70
2018-12-17T05:32:36.359Z,47.10
2018-12-17T05:33:36.467Z,47.70
2018-12-17T05:34:36.584Z,48.30
2018-12-17T05:35:36.800Z,48.20
2018-12-17T05:36:36.904Z,47.10
2018-12-17T05:37:36.896Z,48.50
2018-12-17T05:38:36.810Z,48.30
2018-12-17T05:39:37.429Z,44.70
2018-12-17T05:40:37.531Z,46.00
2018-12-17T05:41:37.283Z,47.00
2018-12-17T05:42:37.555Z,48.20
2018-12-17T05:43:38.721Z,48.00
2018-12-17T05:44:37.737Z,45.80
2018-12-17T05:45:37.799Z,46.00
2018-12-17T05:46:37.851Z,45.00
2018-12-17T05:47:37.907Z,47.20
2018-12-17T05:48:37.953Z,48.00
2018-12-17T05:49:37.989Z,46.00
2018-12-17T05:50:38.225Z,47.00
2018-12-17T05:51:38.319Z,46.20
2018-12-17T05:52:38.517Z,46.90
2018-12-17T05:54:38.721Z,47.40
2018-12-17T05:55:38.813Z,47.60
2018-12-17T05:56:38.842Z,43.50
2018-12-17T05:57:38.966Z,45.10
2018-12-17T05:58:39.069Z,47.20
2018-12-17T05:59:39.027Z,47.30
2018-12-17T06:00:39.376Z,45.50
2018-12-17T06:01:39.688Z,44.20
2018-12-17T06:02:39.957Z,45.80
2018-12-17T06:03:40.274Z,44.80
2018-12-17T06:04:40.626Z,46.90
2018-12-17T06:05:40.895Z,45.90
2018-12-17T06:06:41.509Z,47.50
2018-12-17T06:07:41.331Z,46.10
2018-12-17T06:08:41.647Z,45.80
2018-12-17T06:09:42.501Z,48.20
2018-12-17T06:10:42.273Z,47.70
2018-12-17T06:11:42.815Z,47.40
2018-12-17T06:12:42.596Z,48.30
2018-12-17T06:13:42.909Z,48.20
2018-12-17T06:14:43.313Z,46.90
2018-12-17T06:15:43.639Z,49.90
2018-12-17T06:16:43.957Z,49.20
2018-12-17T06:17:44.259Z,47.90
2018-12-17T06:18:44.580Z,48.10
2018-12-17T06:19:44.950Z,50.30
2018-12-17T06:20:45.384Z,51.60
2018-12-17T06:21:45.734Z,50.50
2018-12-17T06:22:46.071Z,51.20
2018-12-17T06:23:46.347Z,49.80
2018-12-17T06:24:46.832Z,49.60
2018-12-17T06:25:47.072Z,49.20
2018-12-17T06:26:47.384Z,51.30
2018-12-17T06:27:47.897Z,49.90
2018-12-17T06:28:47.896Z,51.40
2018-12-17T06:29:47.886Z,51.20
2018-12-17T06:30:49.128Z,47.50
2018-12-17T06:31:49.132Z,50.40
2018-12-17T06:32:49.244Z,55.60
2018-12-17T06:33:49.506Z,50.90
2018-12-17T06:34:50.021Z,54.00
2018-12-17T06:35:49.568Z,52.60
2018-12-17T06:36:49.985Z,50.20
2018-12-17T06:37:50.197Z,50.60
2018-12-17T06:38:50.617Z,54.10
2018-12-17T06:39:51.217Z,52.40
2018-12-17T06:40:51.007Z,56.90
2018-12-17T06:41:51.247Z,53.80
2018-12-17T06:42:51.297Z,54.10
2018-12-17T06:43:51.666Z,52.40
2018-12-17T06:44:51.887Z,52.20
2018-12-17T06:45:52.063Z,49.60
2018-12-17T06:46:51.796Z,54.80
2018-12-17T06:47:52.155Z,55.20
2018-12-17T06:48:52.372Z,52.40
2018-12-17T06:49:52.459Z,60.20
2018-12-17T06:50:52.589Z,54.90
2018-12-17T06:51:52.678Z,55.70
2018-12-17T06:52:52.737Z,55.30
2018-12-17T06:53:52.810Z,53.60
2018-12-17T06:54:54.965Z,55.40
2018-12-17T06:55:52.916Z,55.60
2018-12-17T06:56:52.949Z,57.50
2018-12-17T06:57:52.993Z,56.30
2018-12-17T06:58:53.117Z,57.10
2018-12-17T06:59:53.214Z,59.20
2018-12-17T07:00:53.304Z,58.20
2018-12-17T07:01:53.409Z,59.10
2018-12-17T07:02:53.634Z,56.70
2018-12-17T07:03:53.840Z,57.30
2018-12-17T07:04:53.963Z,63.40
2018-12-17T07:05:54.316Z,59.30
2018-12-17T07:06:54.105Z,64.80
2018-12-17T07:07:54.599Z,61.00
2018-12-17T07:08:54.942Z,64.40
2018-12-17T07:09:55.209Z,62.60
2018-12-17T07:10:55.592Z,60.50
2018-12-17T07:11:55.878Z,60.10
2018-12-17T07:12:56.119Z,56.10
2018-12-17T07:13:56.404Z,58.00
2018-12-17T07:14:56.780Z,57.50
2018-12-17T07:15:57.146Z,59.00
2018-12-17T07:16:57.516Z,58.50
2018-12-17T07:17:57.973Z,58.70
2018-12-17T07:18:58.280Z,62.60
2018-12-17T07:19:58.752Z,66.40
2018-12-17T07:20:59.112Z,59.20
2018-12-17T07:21:59.419Z,58.20
2018-12-17T07:22:59.652Z,58.40
2018-12-17T07:24:00.178Z,59.10
2018-12-17T07:25:00.843Z,58.80
2018-12-17T07:26:01.254Z,58.50
2018-12-17T07:27:01.112Z,59.00
2018-12-17T07:28:01.402Z,61.30
2018-12-17T07:29:02.101Z,57.50
2018-12-17T07:30:02.188Z,58.90
2018-12-17T07:31:02.449Z,57.20
2018-12-17T07:32:02.680Z,56.30
2018-12-17T07:33:02.757Z,60.10
2018-12-17T07:34:02.491Z,58.10
2018-12-17T07:35:03.573Z,59.20
2018-12-17T07:36:03.378Z,54.20
2018-12-17T07:37:03.793Z,54.40
2018-12-17T07:38:04.519Z,58.30
2018-12-17T07:39:04.421Z,56.10
2018-12-17T07:40:05.442Z,59.70
2018-12-17T07:41:05.567Z,55.30
2018-12-17T07:42:06.076Z,59.60
2018-12-17T07:43:06.092Z,55.10
2018-12-17T07:44:06.603Z,58.80
2018-12-17T07:45:06.469Z,61.10
2018-12-17T07:46:06.814Z,55.90
2018-12-17T07:47:06.920Z,60.40
2018-12-17T07:48:07.058Z,59.80
2018-12-17T07:49:07.103Z,62.20
2018-12-17T07:50:07.128Z,64.60
2018-12-17T07:51:07.165Z,59.00
2018-12-17T07:52:07.421Z,52.20
2018-12-17T07:53:07.532Z,58.90
2018-12-17T07:54:07.690Z,60.10
2018-12-17T07:55:07.734Z,54.30
2018-12-17T07:56:07.787Z,60.00
2018-12-17T07:57:07.846Z,58.50
2018-12-17T07:58:07.584Z,110.70
2018-12-17T07:59:08.033Z,61.80
2018-12-17T08:00:08.711Z,55.80
2018-12-17T08:01:08.957Z,54.40
2018-12-17T08:02:09.211Z,54.70
2018-12-17T08:03:09.225Z,55.70
2018-12-17T08:04:09.291Z,55.50
2018-12-17T08:05:09.360Z,54.70
2018-12-17T08:06:09.356Z,55.00
2018-12-17T08:07:09.545Z,56.20
2018-12-17T08:08:09.589Z,55.40
2018-12-17T08:09:09.914Z,54.70
2018-12-17T08:10:09.957Z,53.50
2018-12-17T08:11:09.781Z,56.40
2018-12-17T08:12:10.177Z,56.80
2018-12-17T08:13:10.683Z,53.50
2018-12-17T08:14:11.018Z,55.50
2018-12-17T08:15:11.274Z,54.20
2018-12-17T08:16:11.727Z,54.00
2018-12-17T08:17:12.325Z,53.20
2018-12-17T08:18:12.185Z,52.60
2018-12-17T08:19:12.481Z,59.40
2018-12-17T08:20:12.793Z,55.70
2018-12-17T08:21:13.147Z,51.70
2018-12-17T08:22:13.484Z,50.70
2018-12-17T08:23:13.740Z,50.40
2018-12-17T08:24:14.328Z,48.50
2018-12-17T08:25:14.555Z,47.40
2018-12-17T08:26:14.378Z,49.70
2018-12-17T08:27:14.820Z,47.50
2018-12-17T08:28:15.099Z,47.20
2018-12-17T08:29:15.695Z,49.00
2018-12-17T08:30:15.901Z,47.40
2018-12-17T08:31:15.738Z,45.10
2018-12-17T08:32:16.267Z,45.40
2018-12-17T08:33:16.055Z,45.80
2018-12-17T08:34:16.484Z,44.50
2018-12-17T08:35:16.798Z,41.00
2018-12-17T08:36:17.148Z,41.10
2018-12-17T08:37:17.384Z,40.00
2018-12-17T08:38:17.630Z,41.80
2018-12-17T08:39:18.223Z,41.80
2018-12-17T08:40:18.643Z,39.60
2018-12-17T08:41:19.100Z,39.30
2018-12-17T08:42:19.898Z,39.50
2018-12-17T08:43:20.096Z,39.90
2018-12-17T08:44:20.510Z,39.20
2018-12-17T08:45:20.802Z,37.20
2018-12-17T08:46:21.242Z,37.30
2018-12-17T08:47:21.305Z,38.00
2018-12-17T08:48:21.256Z,40.60
2018-12-17T08:49:21.873Z,39.80
2018-12-17T08:50:21.963Z,38.80
2018-12-17T08:51:22.077Z,39.70
2018-12-17T08:52:22.165Z,39.40
2018-12-17T08:53:22.190Z,39.10
2018-12-17T08:54:22.169Z,37.50
2018-12-17T08:55:22.348Z,39.50
2018-12-17T08:56:22.475Z,37.20
2018-12-17T08:57:22.994Z,39.40
2018-12-17T08:58:22.534Z,39.00
2018-12-17T08:59:22.734Z,36.90
2018-12-17T09:00:22.867Z,37.30
2018-12-17T09:01:22.902Z,37.50
2018-12-17T09:02:23.064Z,34.50
2018-12-17T09:03:23.118Z,37.80
2018-12-17T09:04:23.199Z,32.30
2018-12-17T09:05:23.398Z,35.40
2018-12-17T09:06:23.489Z,35.40
2018-12-17T09:07:23.607Z,34.50
2018-12-17T09:08:23.715Z,36.50
2018-12-17T09:09:23.794Z,35.90
2018-12-17T09:10:23.875Z,35.20
2018-12-17T09:11:24.049Z,36.50
2018-12-17T09:12:24.173Z,36.40
2018-12-17T09:13:24.518Z,36.70
2018-12-17T09:14:24.562Z,36.70
2018-12-17T09:15:24.517Z,36.10
2018-12-17T09:16:24.810Z,36.00
2018-12-17T09:17:25.161Z,36.90
2018-12-17T09:18:25.471Z,33.80
2018-12-17T09:19:25.804Z,34.00
2018-12-17T09:20:26.138Z,34.50
2018-12-17T09:21:26.416Z,35.50
2018-12-17T09:22:26.733Z,35.40
2018-12-17T09:23:27.306Z,35.90
2018-12-17T09:24:27.408Z,35.10
2018-12-17T09:25:27.257Z,36.60
2018-12-17T09:26:27.578Z,34.10
2018-12-17T09:27:27.826Z,34.50
2018-12-17T09:28:28.238Z,36.00
2018-12-17T09:29:28.512Z,35.20
2018-12-17T09:30:28.820Z,34.50
2018-12-17T09:31:29.174Z,34.40
2018-12-17T09:32:29.450Z,33.90
2018-12-17T09:33:29.885Z,34.30
2018-12-17T09:34:30.338Z,35.10
2018-12-17T09:35:30.603Z,34.10
2018-12-17T09:36:30.919Z,34.50
2018-12-17T09:37:31.226Z,33.40
2018-12-17T09:38:31.602Z,34.20
2018-12-17T09:39:31.952Z,33.50
2018-12-17T09:40:32.271Z,34.00
2018-12-17T09:41:32.614Z,34.00
2018-12-17T09:42:32.972Z,33.10
2018-12-17T09:43:33.706Z,33.20
2018-12-17T09:44:34.626Z,32.20
2018-12-17T09:45:35.145Z,35.20
2018-12-17T09:46:35.147Z,33.90
2018-12-17T09:47:35.568Z,34.00
2018-12-17T09:48:35.990Z,34.30
2018-12-17T09:49:36.093Z,34.30
2018-12-17T09:50:36.302Z,33.90
2018-12-17T09:51:36.614Z,34.50
2018-12-17T09:52:36.827Z,32.60
2018-12-17T09:53:36.938Z,32.30
2018-12-17T09:54:37.045Z,31.70
2018-12-17T09:55:36.935Z,30.60
2018-12-17T09:56:37.351Z,31.50
2018-12-17T09:57:37.447Z,32.90
2018-12-17T09:58:37.555Z,32.90
2018-12-17T09:59:37.683Z,30.60
2018-12-17T10:00:37.770Z,33.20
2018-12-17T10:01:37.832Z,32.50
2018-12-17T10:02:37.990Z,31.00
2018-12-17T10:03:38.089Z,32.90
2018-12-17T10:04:38.344Z,33.40
2018-12-17T10:05:38.426Z,31.20
2018-12-17T10:06:38.792Z,32.00
2018-12-17T10:07:38.909Z,32.60
2018-12-17T10:08:38.998Z,31.30
2018-12-17T10:09:39.093Z,31.80
2018-12-17T10:10:39.103Z,32.40
2018-12-17T10:11:39.063Z,31.90
2018-12-17T10:12:39.458Z,32.20
2018-12-17T10:13:39.751Z,33.10
2018-12-17T10:14:40.065Z,31.70
2018-12-17T10:15:40.374Z,31.90
2018-12-17T10:17:40.699Z,30.10
2018-12-17T10:18:41.031Z,31.90
2018-12-17T10:19:41.267Z,31.20
2018-12-17T10:20:41.653Z,30.50
2018-12-17T10:21:41.958Z,31.00
2018-12-17T10:22:42.313Z,30.10
2018-12-17T10:23:42.590Z,30.10
2018-12-17T10:24:43.014Z,30.20
2018-12-17T10:25:43.584Z,30.30
2018-12-17T10:27:43.430Z,28.80
2018-12-17T10:28:43.754Z,28.70
2018-12-17T10:29:44.146Z,28.20
2018-12-17T10:30:44.473Z,27.20
2018-12-17T10:31:44.830Z,28.90
2018-12-17T10:32:45.295Z,27.40
2018-12-17T10:33:45.844Z,26.70
2018-12-17T10:34:45.627Z,25.40
2018-12-17T10:35:45.930Z,28.50
2018-12-17T10:36:46.291Z,27.70
2018-12-17T10:37:46.518Z,27.10
2018-12-17T10:38:47.160Z,25.60
2018-12-17T10:39:47.076Z,27.30
2018-12-17T10:40:47.443Z,28.30
2018-12-17T10:41:47.724Z,27.30
2018-12-17T10:42:48.628Z,27.60
2018-12-17T10:44:49.257Z,26.70
2018-12-17T10:45:49.259Z,27.80
2018-12-17T10:46:50.084Z,27.70
2018-12-17T10:47:50.399Z,27.00
2018-12-17T10:48:50.925Z,28.80
2018-12-17T10:49:50.909Z,28.00
2018-12-17T10:50:51.441Z,28.20
2018-12-17T10:51:51.184Z,25.50
2018-12-17T10:52:51.354Z,27.50
2018-12-17T10:53:51.570Z,29.00
2018-12-17T10:54:51.876Z,27.60
2018-12-17T10:55:51.978Z,28.10
2018-12-17T10:56:51.878Z,28.00
2018-12-17T10:57:52.361Z,28.40
2018-12-17T10:58:52.460Z,27.00
2018-12-17T10:59:52.650Z,28.70
2018-12-17T11:01:52.755Z,29.50
2018-12-17T11:02:53.256Z,29.90
2018-12-17T11:03:53.559Z,30.00
2018-12-17T11:04:53.539Z,28.00
2018-12-17T11:05:54.093Z,28.80
2018-12-17T11:06:54.316Z,28.60
2018-12-17T11:07:54.426Z,27.70
2018-12-17T11:08:54.626Z,28.70
2018-12-17T11:09:54.364Z,29.60
2018-12-17T11:10:54.607Z,30.70
2018-12-17T11:11:56.409Z,29.80
2018-12-17T11:12:55.120Z,29.60
2018-12-17T11:13:55.543Z,29.20
2018-12-17T11:14:55.830Z,29.90
2018-12-17T11:15:56.139Z,30.50
2018-12-17T11:16:56.442Z,30.40
2018-12-17T11:17:56.760Z,31.40
2018-12-17T11:18:57.117Z,30.50
2018-12-17T11:19:57.505Z,31.40
2018-12-17T11:20:57.803Z,32.20
2018-12-17T11:21:58.163Z,33.80
2018-12-17T11:22:58.648Z,32.70
2018-12-17T11:23:58.959Z,29.90
2018-12-17T11:24:59.268Z,31.80
2018-12-17T11:25:59.571Z,31.00
2018-12-17T11:26:59.912Z,29.00
2018-12-17T11:28:00.207Z,28.30
2018-12-17T11:29:00.493Z,28.80
2018-12-17T11:30:00.733Z,29.10
2018-12-17T11:31:01.568Z,29.70
2018-12-17T11:32:01.638Z,25.70
2018-12-17T11:33:01.839Z,26.60
2018-12-17T11:34:02.351Z,25.90
2018-12-17T11:35:02.558Z,24.60
2018-12-17T11:36:02.712Z,22.10
2018-12-17T11:37:02.899Z,22.00
2018-12-17T11:38:03.213Z,21.10
2018-12-17T11:39:03.945Z,19.90
2018-12-17T11:40:04.257Z,20.90
2018-12-17T11:41:04.377Z,20.90
2018-12-17T11:42:04.843Z,20.10
2018-12-17T11:43:04.680Z,19.30
2018-12-17T11:44:05.716Z,19.60
2018-12-17T11:45:05.717Z,19.80
2018-12-17T11:46:05.349Z,18.90
2018-12-17T11:47:05.626Z,19.30
2018-12-17T11:48:05.942Z,19.80
2018-12-17T11:49:06.264Z,20.50
2018-12-17T11:50:06.469Z,19.50
2018-12-17T11:51:06.576Z,19.20
2018-12-17T11:52:06.659Z,20.10
2018-12-17T11:53:07.213Z,19.60
2018-12-17T11:54:06.809Z,20.30
2018-12-17T11:55:06.799Z,21.50
2018-12-17T11:56:07.332Z,21.10
2018-12-17T11:57:07.149Z,20.00
2018-12-17T11:58:07.390Z,19.10
2018-12-17T11:59:07.236Z,20.10
2018-12-17T12:00:07.486Z,19.90
2018-12-17T12:01:07.697Z,20.30
2018-12-17T12:02:08.018Z,20.00
2018-12-17T12:03:07.881Z,19.40
2018-12-17T12:04:08.295Z,18.80
2018-12-17T12:06:13.973Z,20.10
2018-12-17T12:07:09.103Z,20.00
2018-12-17T12:09:09.353Z,19.00
2018-12-17T12:10:09.091Z,20.60
2018-12-17T12:11:09.549Z,20.10
2018-12-17T12:12:09.869Z,20.50
2018-12-17T12:13:10.376Z,20.60
2018-12-17T12:14:10.240Z,20.70
2018-12-17T12:15:11.397Z,19.90
2018-12-17T12:16:10.902Z,19.60
2018-12-17T12:17:10.817Z,20.10
2018-12-17T12:18:11.124Z,20.00
2018-12-17T12:19:11.397Z,20.60
2018-12-17T12:20:11.853Z,20.60
2018-12-17T12:21:12.234Z,19.60
2018-12-17T12:22:12.522Z,19.20
2018-12-17T12:23:12.896Z,20.00
2018-12-17T12:24:13.173Z,19.70
2018-12-17T12:25:13.640Z,21.40
2018-12-17T12:26:13.942Z,20.10
2018-12-17T12:27:14.253Z,21.40
2018-12-17T12:28:14.521Z,22.00
2018-12-17T12:29:14.858Z,22.00
2018-12-17T12:30:15.126Z,21.20
2018-12-17T12:31:15.578Z,22.70
2018-12-17T12:32:15.877Z,21.40
2018-12-17T12:33:16.116Z,23.90
2018-12-17T12:34:17.563Z,22.80
2018-12-17T12:35:16.975Z,22.60
2018-12-17T12:36:17.223Z,22.60
2018-12-17T12:37:17.540Z,22.80
2018-12-17T12:38:17.775Z,23.70
2018-12-17T12:39:18.571Z,22.70
2018-12-17T12:40:19.391Z,22.60
2018-12-17T12:41:19.500Z,21.80
2018-12-17T12:42:19.608Z,21.10
2018-12-17T12:43:19.716Z,21.30
2018-12-17T12:44:20.037Z,21.80
2018-12-17T12:45:20.238Z,22.00
2018-12-17T12:46:20.759Z,18.70
2018-12-17T12:47:20.457Z,21.10
2018-12-17T12:48:20.976Z,21.90
2018-12-17T12:49:20.887Z,20.80
2018-12-17T12:50:21.296Z,21.80
2018-12-17T12:51:21.611Z,20.00
2018-12-17T12:52:21.724Z,20.80
2018-12-17T12:53:21.931Z,21.60
2018-12-17T12:54:22.030Z,21.40
2018-12-17T12:55:22.033Z,22.40
2018-12-17T12:56:21.930Z,21.00
2018-12-17T12:57:22.242Z,21.70
2018-12-17T12:58:22.413Z,21.00
2018-12-17T12:59:22.610Z,20.90
2018-12-17T13:00:22.791Z,21.90
2018-12-17T13:01:23.014Z,22.80
2018-12-17T13:02:23.215Z,21.70
2018-12-17T13:03:23.607Z,22.10
2018-12-17T13:04:23.849Z,23.10
2018-12-17T13:05:23.922Z,22.20